Time;durP1;ratioP1;P1;durP2;ratioP2;P2;SDS_P1;SDS_P2;PMS_P1;PMS_P2;Temp;Humidity;BMP_temperature;BMP_pressure;BME280_temperature;BME280_humidity;BME280_pressure;Samples;Min_cycle;Max_cycle;Signal;HPM_P1;HPM_P2
2021/10/06 00:01:38;;;;;;;7.15;2.10;;;9.90;90.70;;;;;;5091124;28;20165;-76
2021/10/06 00:04:04;;;;;;;10.18;2.83;;;9.90;90.80;;;;;;5092606;28;20225;-78
2021/10/06 00:06:30;;;;;;;7.47;2.30;;;9.90;90.80;;;;;;5091371;28;20035;-77
2021/10/06 00:08:56;;;;;;;8.88;2.78;;;9.90;90.90;;;;;;5092557;28;20031;-77
2021/10/06 00:11:22;;;;;;;5.90;2.60;;;10.00;91.00;;;;;;5092918;28;20024;-80
2021/10/06 00:13:48;;;;;;;7.78;2.35;;;10.00;91.00;;;;;;5092643;28;20032;-76
2021/10/06 00:16:15;;;;;;;10.50;2.53;;;10.00;91.00;;;;;;5091875;28;20424;-78
2021/10/06 00:18:42;;;;;;;7.43;2.30;;;10.00;91.00;;;;;;5092497;28;20096;-79
2021/10/06 00:21:08;;;;;;;6.30;2.13;;;10.00;91.10;;;;;;5075390;28;20035;-77
2021/10/06 00:23:34;;;;;;;6.97;2.53;;;10.00;91.10;;;;;;5093172;28;20032;-76
2021/10/06 00:26:00;;;;;;;9.68;2.72;;;10.00;91.10;;;;;;5091679;28;20486;-79
2021/10/06 00:28:27;;;;;;;7.50;2.78;;;10.00;91.20;;;;;;5074211;28;20028;-78
2021/10/06 00:30:53;;;;;;;6.28;2.40;;;10.00;91.20;;;;;;5090535;28;20046;-75
2021/10/06 00:33:20;;;;;;;;;;;10.00;91.20;;;;;;5092527;28;20024;-79
2021/10/06 00:35:45;;;;;;;5.55;2.53;;;10.00;91.30;;;;;;5091810;28;20320;-78
2021/10/06 00:38:11;;;;;;;5.38;2.30;;;10.00;91.20;;;;;;5091670;28;20536;-77
2021/10/06 00:40:37;;;;;;;5.05;2.42;;;10.00;91.30;;;;;;5091657;28;20031;-78
2021/10/06 00:43:03;;;;;;;7.53;2.25;;;10.00;91.30;;;;;;5091694;28;20136;-78
2021/10/06 00:45:29;;;;;;;6.30;2.42;;;9.90;91.40;;;;;;5091267;28;20126;-75
2021/10/06 00:47:54;;;;;;;7.80;2.20;;;10.00;91.50;;;;;;5098772;28;20111;-78
2021/10/06 00:50:20;;;;;;;6.75;2.30;;;10.00;91.60;;;;;;5098472;28;20051;-76
2021/10/06 00:52:46;;;;;;;9.23;2.30;;;10.00;91.60;;;;;;5099218;28;20020;-78
2021/10/06 00:55:14;;;;;;;10.07;2.10;;;10.00;91.60;;;;;;5098215;28;20041;-78
2021/10/06 00:57:40;;;;;;;4.53;1.98;;;10.10;91.70;;;;;;5098510;28;20386;-80
2021/10/06 01:00:07;;;;;;;6.95;2.08;;;10.10;91.70;;;;;;5098746;28;20028;-77
2021/10/06 01:02:33;;;;;;;5.70;1.88;;;10.10;91.70;;;;;;5097888;28;20028;-78
2021/10/06 01:04:58;;;;;;;6.80;1.98;;;10.10;91.80;;;;;;5098597;28;20363;-77
2021/10/06 01:07:24;;;;;;;7.13;2.08;;;10.10;91.80;;;;;;5080482;28;20106;-77
2021/10/06 01:09:51;;;;;;;4.75;1.90;;;10.20;91.90;;;;;;5099176;28;20027;-77
2021/10/06 01:12:19;;;;;;;6.20;2.63;;;10.20;91.90;;;;;;5081258;28;20493;-77
2021/10/06 01:14:46;;;;;;;7.55;2.17;;;10.20;92.00;;;;;;5097448;28;20016;-76
2021/10/06 01:17:12;;;;;;;7.22;1.83;;;10.20;92.00;;;;;;5098347;28;20032;-77
2021/10/06 01:19:37;;;;;;;4.63;1.75;;;10.30;92.00;;;;;;5098225;28;20081;-76
2021/10/06 01:22:03;;;;;;;6.70;2.00;;;10.30;92.00;;;;;;5098657;28;20035;-77
2021/10/06 01:24:30;;;;;;;4.72;1.95;;;10.30;92.00;;;;;;5097869;28;20100;-77
2021/10/06 01:26:57;;;;;;;4.32;1.60;;;10.30;92.00;;;;;;5099126;28;20444;-79
2021/10/06 01:29:23;;;;;;;6.25;2.35;;;10.30;92.00;;;;;;5080107;28;20055;-78
2021/10/06 01:31:50;;;;;;;3.92;1.90;;;10.30;92.10;;;;;;5098252;28;20048;-79
2021/10/06 01:34:17;;;;;;;5.80;2.10;;;10.30;92.10;;;;;;5097898;28;20053;-77
2021/10/06 01:36:47;;;;;;;9.10;2.22;;;10.30;92.10;;;;;;5097835;28;20445;-78
2021/10/06 01:39:13;;;;;;;7.45;2.25;;;10.30;92.20;;;;;;5099114;28;20030;-77
2021/10/06 01:41:39;;;;;;;6.43;2.38;;;10.30;92.40;;;;;;5097658;28;20028;-77
2021/10/06 01:44:05;;;;;;;7.40;2.63;;;10.30;92.20;;;;;;5080600;28;20041;-77
2021/10/06 01:46:31;;;;;;;7.78;2.20;;;10.30;92.20;;;;;;5097567;28;20482;-78
2021/10/06 01:48:57;;;;;;;6.68;1.98;;;10.20;92.20;;;;;;5098159;28;20024;-78
2021/10/06 01:51:26;;;;;;;5.57;2.10;;;10.20;92.20;;;;;;5098032;28;20423;-78
2021/10/06 01:53:52;;;;;;;7.53;2.40;;;10.10;92.30;;;;;;5096519;28;20036;-77
2021/10/06 01:56:18;;;;;;;;;;;10.00;92.20;;;;;;5097442;28;20034;-78
2021/10/06 01:58:47;;;;;;;7.45;2.25;;;10.00;92.30;;;;;;5094819;28;19982;-78
2021/10/06 02:01:13;;;;;;;6.70;2.70;;;9.90;92.20;;;;;;5095660;28;20105;-76
2021/10/06 02:03:39;;;;;;;6.90;2.20;;;9.90;92.30;;;;;;5095133;28;20112;-79
2021/10/06 02:06:05;;;;;;;5.60;2.20;;;9.80;92.40;;;;;;5093113;28;20525;-79
2021/10/06 02:08:30;;;;;;;6.25;2.30;;;9.80;92.60;;;;;;5076245;28;20028;-77
2021/10/06 02:10:56;;;;;;;10.70;2.33;;;9.80;92.60;;;;;;5076672;28;20490;-78
2021/10/06 02:13:22;;;;;;;4.95;2.25;;;9.80;92.60;;;;;;5093669;28;20485;-78
2021/10/06 02:15:47;;;;;;;6.72;2.10;;;9.80;92.60;;;;;;5095572;28;20024;-77
2021/10/06 02:18:14;;;;;;;9.68;2.83;;;9.80;92.70;;;;;;5094479;28;20024;-78
2021/10/06 02:20:39;;;;;;;;;;;9.80;92.70;;;;;;5095024;28;20474;-79
2021/10/06 02:23:05;;;;;;;8.43;2.75;;;9.80;92.70;;;;;;5093336;28;19962;-78
2021/10/06 02:25:31;;;;;;;6.50;2.15;;;9.80;92.70;;;;;;5093578;28;20047;-76
2021/10/06 02:27:57;;;;;;;6.80;2.47;;;9.80;92.80;;;;;;5094775;28;20032;-78
2021/10/06 02:30:23;;;;;;;5.97;2.20;;;9.80;92.90;;;;;;5094171;28;20077;-77
2021/10/06 02:32:49;;;;;;;6.35;1.92;;;9.80;92.90;;;;;;5093770;28;20111;-78
2021/10/06 02:35:15;;;;;;;5.43;2.08;;;9.90;93.00;;;;;;5092808;28;20070;-78
2021/10/06 02:37:42;;;;;;;5.57;2.20;;;9.90;93.00;;;;;;5093605;28;20052;-76
2021/10/06 02:40:11;;;;;;;5.63;2.20;;;9.90;93.00;;;;;;5094033;28;20268;-77
2021/10/06 02:42:37;;;;;;;7.68;2.80;;;9.90;93.00;;;;;;5094715;28;20390;-79
2021/10/06 02:45:05;;;;;;;8.00;2.65;;;10.00;93.10;;;;;;5095197;28;20032;-79
2021/10/06 02:47:31;;;;;;;8.35;2.42;;;10.00;93.10;;;;;;5092945;28;20028;-77
2021/10/06 02:49:56;;;;;;;8.00;2.95;;;10.00;93.10;;;;;;5092880;28;20034;-78
2021/10/06 02:52:22;;;;;;;6.13;3.00;;;10.00;93.10;;;;;;5093620;28;20500;-77
2021/10/06 02:54:48;;;;;;;6.35;2.88;;;10.00;93.10;;;;;;5075191;28;20100;-78
2021/10/06 02:57:14;;;;;;;9.05;3.20;;;10.00;93.10;;;;;;5075767;28;20043;-78
2021/10/06 02:59:39;;;;;;;13.02;2.88;;;10.00;93.10;;;;;;5093080;28;20395;-77
2021/10/06 03:02:05;;;;;;;6.75;2.50;;;10.00;93.10;;;;;;5093258;28;20561;-77
2021/10/06 03:04:31;;;;;;;6.20;2.50;;;10.00;93.10;;;;;;5075731;28;20028;-79
2021/10/06 03:06:56;;;;;;;7.10;2.42;;;10.00;93.10;;;;;;5093919;28;20048;-79
2021/10/06 03:09:22;;;;;;;6.65;2.38;;;10.10;93.10;;;;;;5074003;28;20024;-77
2021/10/06 03:11:48;;;;;;;7.03;2.53;;;10.00;93.20;;;;;;5093446;28;20028;-78
2021/10/06 03:14:14;;;;;;;4.93;2.10;;;10.10;93.20;;;;;;5075696;28;20035;-79
2021/10/06 03:16:39;;;;;;;7.20;2.30;;;10.00;93.20;;;;;;5095047;28;20069;-76
2021/10/06 03:19:05;;;;;;;8.65;2.65;;;10.10;93.30;;;;;;5076361;28;20066;-78
2021/10/06 03:21:31;;;;;;;8.82;2.35;;;10.10;93.30;;;;;;5093837;28;20432;-76
2021/10/06 03:23:57;;;;;;;6.15;2.50;;;10.20;93.30;;;;;;5093163;28;20382;-78
2021/10/06 03:26:23;;;;;;;10.48;2.70;;;10.20;93.30;;;;;;5092601;28;20473;-77
2021/10/06 03:28:49;;;;;;;;;;;10.20;93.30;;;;;;5093399;28;20024;-77
2021/10/06 03:31:15;;;;;;;7.95;2.03;;;10.30;93.20;;;;;;5091685;28;19919;-77
2021/10/06 03:33:41;;;;;;;7.63;2.40;;;10.30;93.10;;;;;;5092454;28;20085;-78
2021/10/06 03:36:07;;;;;;;7.63;2.20;;;10.30;93.10;;;;;;5074369;28;20112;-79
2021/10/06 03:38:32;;;;;;;6.00;2.28;;;10.30;93.10;;;;;;5091378;28;20032;-78
2021/10/06 03:40:58;;;;;;;5.70;2.05;;;10.40;93.20;;;;;;5057925;28;20036;-78
2021/10/06 03:43:24;;;;;;;5.63;2.40;;;10.40;93.20;;;;;;5092719;28;20044;-79
2021/10/06 03:45:50;;;;;;;8.07;2.33;;;10.40;93.10;;;;;;5091513;28;20066;-78
2021/10/06 03:48:16;;;;;;;5.90;2.10;;;10.40;93.10;;;;;;5075261;28;20024;-76
2021/10/06 03:50:42;;;;;;;6.85;3.40;;;10.40;93.10;;;;;;5075445;28;20024;-76
2021/10/06 03:53:09;;;;;;;6.00;2.15;;;10.40;93.10;;;;;;5093019;28;20085;-79
2021/10/06 03:55:35;;;;;;;7.18;3.20;;;10.40;93.10;;;;;;5091819;28;20108;-77
2021/10/06 03:58:01;;;;;;;7.10;2.17;;;10.40;93.10;;;;;;5093151;28;20494;-78
2021/10/06 04:00:27;;;;;;;8.32;2.20;;;10.40;93.20;;;;;;5075083;28;20054;-77
2021/10/06 04:02:53;;;;;;;9.52;2.17;;;10.40;93.20;;;;;;5092709;28;20028;-78
2021/10/06 04:05:18;;;;;;;7.00;2.08;;;10.40;93.20;;;;;;5091799;28;20185;-77
2021/10/06 04:07:44;;;;;;;3.95;1.58;;;10.40;93.20;;;;;;5074627;28;20028;-78
2021/10/06 04:10:10;;;;;;;5.57;2.00;;;10.30;93.20;;;;;;5074103;28;20036;-76
2021/10/06 04:12:36;;;;;;;7.95;2.15;;;10.40;93.30;;;;;;5092202;28;20355;-78
2021/10/06 04:15:01;;;;;;;5.65;1.63;;;10.40;93.30;;;;;;5091469;28;20043;-77
2021/10/06 04:17:27;;;;;;;5.65;2.13;;;10.40;93.30;;;;;;5074125;28;20028;-78
2021/10/06 04:19:53;;;;;;;6.18;2.55;;;10.40;93.30;;;;;;5092592;28;20028;-77
2021/10/06 04:22:19;;;;;;;7.22;2.90;;;10.40;93.30;;;;;;5074280;28;20039;-79
2021/10/06 04:24:44;;;;;;;6.85;1.90;;;10.40;93.30;;;;;;5091885;28;20085;-76
2021/10/06 04:27:10;;;;;;;8.38;1.70;;;10.40;93.30;;;;;;5092009;28;20069;-77
2021/10/06 04:29:36;;;;;;;6.20;2.15;;;10.40;93.40;;;;;;5090552;28;20036;-77
2021/10/06 04:32:03;;;;;;;7.13;1.90;;;10.50;93.40;;;;;;5073409;28;20054;-77
2021/10/06 04:34:29;;;;;;;6.30;2.00;;;10.50;93.40;;;;;;5091666;28;20438;-79
2021/10/06 04:36:55;;;;;;;10.93;2.25;;;10.50;93.40;;;;;;5090428;28;20448;-80
2021/10/06 04:39:21;;;;;;;8.40;2.20;;;10.50;93.40;;;;;;5091520;28;20028;-77
2021/10/06 04:41:46;;;;;;;6.93;1.65;;;10.50;93.40;;;;;;5090583;28;20035;-77
2021/10/06 04:44:12;;;;;;;4.85;1.70;;;10.50;93.50;;;;;;5073680;28;20644;-78
2021/10/06 04:46:38;;;;;;;8.30;1.67;;;10.50;93.50;;;;;;5090439;28;20088;-79
2021/10/06 04:49:04;;;;;;;7.00;2.10;;;10.50;93.40;;;;;;5090255;28;20028;-79
2021/10/06 04:51:30;;;;;;;6.32;1.80;;;10.50;93.50;;;;;;5091595;28;20062;-78
2021/10/06 04:53:56;;;;;;;4.93;1.63;;;10.50;93.50;;;;;;5091674;28;20063;-77
2021/10/06 04:56:22;;;;;;;6.18;2.08;;;10.50;93.50;;;;;;5091625;28;20211;-76
2021/10/06 04:58:48;;;;;;;7.25;2.45;;;10.60;93.60;;;;;;5091387;28;20032;-77
2021/10/06 05:01:13;;;;;;;5.22;1.85;;;10.60;93.60;;;;;;5090285;28;20047;-77
2021/10/06 05:03:40;;;;;;;8.50;2.03;;;10.60;93.60;;;;;;5090118;28;20035;-76
2021/10/06 05:06:06;;;;;;;7.25;2.33;;;10.60;93.60;;;;;;5091343;28;20036;-80
2021/10/06 05:08:33;;;;;;;7.05;2.05;;;10.70;93.60;;;;;;5091237;28;20559;-79
2021/10/06 05:10:58;;;;;;;5.45;1.67;;;10.70;93.60;;;;;;5091271;28;20026;-78
2021/10/06 05:13:24;;;;;;;5.68;1.83;;;10.70;93.60;;;;;;5091118;28;20099;-78
2021/10/06 05:15:50;;;;;;;5.93;1.60;;;10.70;93.60;;;;;;5091602;28;20028;-78
2021/10/06 05:18:16;;;;;;;8.50;1.88;;;10.70;93.60;;;;;;5089902;28;20036;-77
2021/10/06 05:20:41;;;;;;;7.30;2.20;;;10.80;93.60;;;;;;5090133;28;20394;-77
2021/10/06 05:23:07;;;;;;;8.65;2.00;;;10.80;93.60;;;;;;5091049;28;20016;-78
2021/10/06 05:25:35;;;;;;;6.78;1.38;;;10.80;93.60;;;;;;5089649;28;20252;-77
2021/10/06 05:28:01;;;;;;;10.82;2.25;;;10.80;93.60;;;;;;5089985;28;20458;-77
2021/10/06 05:30:27;;;;;;;;;;;10.90;93.60;;;;;;5091371;28;20051;-78
2021/10/06 05:32:52;;;;;;;13.52;2.35;;;10.90;93.60;;;;;;5091977;28;20366;-78
2021/10/06 05:35:18;;;;;;;12.07;2.10;;;10.90;93.50;;;;;;5093640;28;20036;-78
2021/10/06 05:37:45;;;;;;;5.75;1.80;;;10.90;93.50;;;;;;5093561;28;20033;-78
2021/10/06 05:40:11;;;;;;;;;;;10.90;93.60;;;;;;5077201;28;20107;-79
2021/10/06 05:42:36;;;;;;;6.78;1.80;;;10.90;93.60;;;;;;5094614;28;19994;-77
2021/10/06 05:45:03;;;;;;;4.68;1.50;;;10.90;93.60;;;;;;5093183;28;20085;-79
2021/10/06 05:47:28;;;;;;;8.02;1.40;;;10.90;93.60;;;;;;5094355;28;20093;-78
2021/10/06 05:49:54;;;;;;;7.28;1.70;;;10.90;93.70;;;;;;5094288;28;20028;-78
2021/10/06 05:52:23;;;;;;;5.65;1.52;;;11.00;93.70;;;;;;5094572;28;20024;-79
2021/10/06 05:54:50;;;;;;;6.28;1.80;;;11.00;93.80;;;;;;5094353;28;20031;-76
2021/10/06 05:57:16;;;;;;;10.70;1.88;;;11.00;93.80;;;;;;5093587;28;20028;-77
2021/10/06 05:59:41;;;;;;;4.65;1.63;;;11.00;93.80;;;;;;5094454;28;20449;-77
2021/10/06 06:02:07;;;;;;;9.55;2.03;;;11.00;93.80;;;;;;5093485;28;20024;-79
2021/10/06 06:04:33;;;;;;;8.50;2.05;;;11.00;93.90;;;;;;5094244;28;20032;-77
2021/10/06 06:06:59;;;;;;;9.75;2.40;;;11.00;93.90;;;;;;5094347;28;20099;-77
2021/10/06 06:09:25;;;;;;;8.98;2.13;;;11.10;94.00;;;;;;5092643;28;20386;-78
2021/10/06 06:11:51;;;;;;;6.55;1.80;;;11.10;94.00;;;;;;5094107;28;20024;-77
2021/10/06 06:14:18;;;;;;;13.00;1.90;;;11.10;94.10;;;;;;5092608;28;20524;-76
2021/10/06 06:16:44;;;;;;;10.77;2.10;;;11.10;94.20;;;;;;5093075;28;20051;-77
2021/10/06 06:19:10;;;;;;;11.07;1.85;;;11.20;94.20;;;;;;5094557;28;20035;-78
2021/10/06 06:21:35;;;;;;;7.45;2.28;;;11.20;94.30;;;;;;5094170;28;20453;-77
2021/10/06 06:24:02;;;;;;;6.72;2.08;;;11.20;94.40;;;;;;5092325;28;20316;-78
2021/10/06 06:26:27;;;;;;;;;;;11.30;94.40;;;;;;5094356;28;20046;-77
2021/10/06 06:28:53;;;;;;;6.50;1.50;;;11.30;94.30;;;;;;5092008;28;20220;-77
2021/10/06 06:31:19;;;;;;;4.97;1.33;;;11.40;94.20;;;;;;5093695;28;20016;-77
2021/10/06 06:33:45;;;;;;;10.95;2.55;;;11.40;94.30;;;;;;5093651;28;20167;-76
2021/10/06 06:36:11;;;;;;;7.97;2.30;;;11.40;94.30;;;;;;5093815;28;20026;-76
2021/10/06 06:38:37;;;;;;;14.38;2.30;;;11.40;94.40;;;;;;5092427;28;20020;-77
2021/10/06 06:41:03;;;;;;;7.90;2.25;;;11.40;94.50;;;;;;5075633;28;20055;-78
2021/10/06 06:43:29;;;;;;;10.88;2.60;;;11.50;94.50;;;;;;5074710;28;20138;-76
2021/10/06 06:45:55;;;;;;;6.60;1.92;;;11.50;94.50;;;;;;5093502;28;20044;-77
2021/10/06 06:48:21;;;;;;;8.82;1.65;;;11.50;94.50;;;;;;5091865;28;20455;-77
2021/10/06 06:50:56;;;;;;;4.50;1.60;;;11.60;94.50;;;;;;5093490;28;20370;-76
2021/10/06 06:53:27;;;;;;;5.68;1.70;;;11.60;94.50;;;;;;5091622;28;20052;-75
2021/10/06 06:55:57;;;;;;;7.28;1.23;;;11.70;94.50;;;;;;5094286;28;20065;-78
2021/10/06 06:58:24;;;;;;;9.23;2.08;;;11.70;94.50;;;;;;5092939;28;20543;-79
2021/10/06 07:00:50;;;;;;;12.13;2.83;;;11.70;94.50;;;;;;5094958;28;20073;-78
2021/10/06 07:03:17;;;;;;;10.98;2.38;;;11.70;94.70;;;;;;5075941;28;20032;-76
2021/10/06 07:05:44;;;;;;;4.47;1.40;;;11.80;94.60;;;;;;5092900;28;20383;-77
2021/10/06 07:08:10;;;;;;;6.05;1.58;;;11.80;94.60;;;;;;5092409;28;20084;-78
2021/10/06 07:10:36;;;;;;;6.95;1.35;;;11.90;94.60;;;;;;5093978;28;20028;-77
2021/10/06 07:13:02;;;;;;;8.48;2.83;;;11.90;94.60;;;;;;5095344;28;20349;-78
2021/10/06 07:15:28;;;;;;;7.53;1.30;;;12.00;94.60;;;;;;5096189;28;20028;-76
2021/10/06 07:17:54;;;;;;;9.32;1.73;;;12.00;94.60;;;;;;5097409;28;20068;-78
2021/10/06 07:20:21;;;;;;;6.10;2.63;;;12.10;94.60;;;;;;5094476;28;20028;-77
2021/10/06 07:22:47;;;;;;;6.88;1.60;;;12.20;94.60;;;;;;5075924;28;20054;-77
2021/10/06 07:25:13;;;;;;;6.95;1.50;;;12.20;94.50;;;;;;5094330;28;20147;-77
2021/10/06 07:27:39;;;;;;;6.50;1.58;;;12.30;94.40;;;;;;5092948;28;20025;-78
2021/10/06 07:30:05;;;;;;;10.63;1.95;;;12.30;94.30;;;;;;5091404;28;20051;-78
2021/10/06 07:32:31;;;;;;;;;;;12.30;94.30;;;;;;5075608;28;20454;-78
2021/10/06 07:34:57;;;;;;;10.93;1.75;;;12.30;94.40;;;;;;5092591;28;19943;-78
2021/10/06 07:37:23;;;;;;;;;;;12.40;94.30;;;;;;5095089;28;20093;-78
2021/10/06 07:39:49;;;;;;;12.15;1.90;;;12.60;94.40;;;;;;5094413;28;19912;-76
2021/10/06 07:42:15;;;;;;;6.25;1.73;;;12.80;94.30;;;;;;5075853;28;20516;-76
2021/10/06 07:44:42;;;;;;;6.38;2.05;;;13.00;94.30;;;;;;5093777;28;20097;-77
2021/10/06 07:47:08;;;;;;;8.43;1.40;;;13.20;94.10;;;;;;5093171;28;20032;-77
2021/10/06 07:49:34;;;;;;;6.53;1.80;;;13.30;93.90;;;;;;5092717;28;20107;-77
2021/10/06 07:52:00;;;;;;;8.20;1.67;;;13.40;93.80;;;;;;5094495;28;20028;-78
2021/10/06 07:54:26;;;;;;;6.47;1.50;;;13.40;93.60;;;;;;5077064;28;20322;-75
2021/10/06 07:56:52;;;;;;;6.15;1.30;;;13.50;93.50;;;;;;5093969;28;20040;-76
2021/10/06 07:59:17;;;;;;;9.15;1.58;;;13.50;93.50;;;;;;5096212;28;20038;-76
2021/10/06 08:01:43;;;;;;;6.70;1.60;;;13.60;93.50;;;;;;5093647;28;20415;-76
2021/10/06 08:04:09;;;;;;;8.95;1.63;;;13.70;93.40;;;;;;5095140;28;20043;-78
2021/10/06 08:06:35;;;;;;;10.38;1.50;;;13.80;93.40;;;;;;5094370;28;20028;-76
2021/10/06 08:09:02;;;;;;;8.10;2.00;;;13.90;93.50;;;;;;5095531;28;20016;-78
2021/10/06 08:11:27;;;;;;;10.98;1.75;;;14.10;93.60;;;;;;5094641;28;20115;-77
2021/10/06 08:13:53;;;;;;;6.03;1.52;;;14.70;94.40;;;;;;5094555;28;20055;-77
2021/10/06 08:16:19;;;;;;;12.82;2.72;;;15.70;94.40;;;;;;5095223;28;20036;-76
2021/10/06 08:18:44;;;;;;;12.65;2.05;;;16.90;93.70;;;;;;5095439;28;20028;-76
2021/10/06 08:21:10;;;;;;;5.72;1.52;;;17.70;92.10;;;;;;5093756;28;20172;-77
2021/10/06 08:23:36;;;;;;;7.45;1.65;;;18.00;90.60;;;;;;5094418;28;20039;-77
2021/10/06 08:26:02;;;;;;;7.53;2.38;;;18.10;89.50;;;;;;5095397;28;20035;-77
2021/10/06 08:28:28;;;;;;;11.32;3.45;;;18.00;87.80;;;;;;5105171;28;20442;-77
2021/10/06 08:30:54;;;;;;;7.97;1.85;;;17.80;86.70;;;;;;5101887;28;20035;-77
2021/10/06 08:33:20;;;;;;;9.40;1.80;;;17.40;85.90;;;;;;5103441;28;20030;-78
2021/10/06 08:35:46;;;;;;;6.03;1.27;;;17.10;86.10;;;;;;5094799;28;20354;-77
2021/10/06 08:38:12;;;;;;;11.75;1.58;;;16.80;86.20;;;;;;5091381;28;20054;-77
2021/10/06 08:40:38;;;;;;;10.13;2.08;;;16.50;86.50;;;;;;5093647;28;20043;-78
2021/10/06 08:43:06;;;;;;;7.47;1.30;;;16.30;86.80;;;;;;5090169;28;20054;-77
2021/10/06 08:45:32;;;;;;;6.68;1.38;;;16.00;87.20;;;;;;5090967;28;20494;-76
2021/10/06 08:48:01;;;;;;;8.55;1.50;;;15.90;87.70;;;;;;5091157;28;20028;-78
2021/10/06 08:50:27;;;;;;;8.10;1.80;;;15.80;87.70;;;;;;5091247;28;20024;-77
2021/10/06 08:52:53;;;;;;;9.27;1.80;;;15.70;87.90;;;;;;5091205;28;20078;-76
2021/10/06 08:55:27;;;;;;;11.73;3.13;;;15.60;88.40;;;;;;5090768;28;20052;-74
2021/10/06 08:57:55;;;;;;;11.73;2.33;;;15.60;88.80;;;;;;5090017;28;20394;-76
2021/10/06 09:00:20;;;;;;;9.48;1.83;;;15.70;89.00;;;;;;5089912;28;20472;-78
2021/10/06 09:02:46;;;;;;;9.93;1.70;;;15.80;89.30;;;;;;5089400;28;20119;-78
2021/10/06 09:05:13;;;;;;;10.73;1.90;;;16.20;89.70;;;;;;5089269;28;20060;-78
2021/10/06 09:08:00;;;;;;;10.48;2.40;;;16.50;88.90;;;;;;5093227;28;20107;-75
2021/10/06 09:10:34;;;;;;;7.07;1.92;;;16.80;87.70;;;;;;5096020;28;20027;-76
2021/10/06 09:13:06;;;;;;;7.50;1.70;;;16.90;87.20;;;;;;5096581;28;20514;-76
2021/10/06 09:15:41;;;;;;;6.07;1.60;;;17.00;86.60;;;;;;5078394;28;20036;-78
2021/10/06 09:18:12;;;;;;;9.27;1.50;;;17.10;86.30;;;;;;5095094;28;20024;-76
2021/10/06 09:20:38;;;;;;;5.70;1.35;;;17.30;87.20;;;;;;5096866;28;20024;-74
2021/10/06 09:23:11;;;;;;;6.93;1.60;;;17.70;85.80;;;;;;5105107;28;20035;-76
2021/10/06 09:26:08;;;;;;;5.88;1.27;;;18.00;84.80;;;;;;5108772;28;20050;-72
2021/10/06 09:28:51;;;;;;;4.88;0.80;;;18.70;84.70;;;;;;5082360;28;20039;-76
2021/10/06 09:31:24;;;;;;;7.97;1.60;;;19.30;83.10;;;;;;5107211;28;20114;-76
2021/10/06 09:33:50;;;;;;;7.70;1.27;;;19.40;81.50;;;;;;5107837;28;20110;-78
2021/10/06 09:36:20;;;;;;;8.10;2.10;;;19.40;80.40;;;;;;5108843;28;20497;-77
2021/10/06 09:38:49;;;;;;;9.02;1.50;;;19.30;80.00;;;;;;5097868;28;20103;-76
2021/10/06 09:41:30;;;;;;;9.77;1.40;;;19.40;79.80;;;;;;5103461;27;20024;-77
2021/10/06 09:44:21;;;;;;;7.40;1.27;;;19.40;78.60;;;;;;5105285;28;20044;-77
2021/10/06 09:46:50;;;;;;;5.97;1.10;;;19.20;77.60;;;;;;5110455;28;20534;-77
2021/10/06 09:49:19;;;;;;;11.38;1.70;;;18.80;77.40;;;;;;5108426;28;20020;-77
2021/10/06 09:51:46;;;;;;;6.93;1.25;;;18.50;77.60;;;;;;5103789;28;20068;-76
2021/10/06 09:54:12;;;;;;;13.60;3.00;;;18.40;78.00;;;;;;5109147;28;20034;-76
2021/10/06 09:56:46;;;;;;;8.27;1.40;;;18.20;78.00;;;;;;5101910;28;20028;-76
2021/10/06 09:59:13;;;;;;;5.70;1.63;;;18.00;77.80;;;;;;5108293;28;20388;-74
2021/10/06 10:01:41;;;;;;;8.65;1.50;;;18.00;77.90;;;;;;5105187;28;20024;-78
2021/10/06 10:04:08;;;;;;;9.77;1.52;;;17.90;78.10;;;;;;5104834;28;20087;-76
2021/10/06 10:06:35;;;;;;;8.32;1.00;;;17.90;78.30;;;;;;5108441;28;20020;-76
2021/10/06 10:09:03;;;;;;;5.50;1.38;;;17.90;77.70;;;;;;5092445;28;20418;-77
2021/10/06 10:11:30;;;;;;;7.10;1.17;;;17.80;77.20;;;;;;5093124;28;20172;-75
2021/10/06 10:13:56;;;;;;;9.57;1.70;;;17.80;77.70;;;;;;5110070;28;20168;-77
2021/10/06 10:16:22;;;;;;;5.97;0.95;;;18.00;78.30;;;;;;5099444;28;20796;-78
2021/10/06 10:18:47;;;;;;;;;;;18.70;78.50;;;;;;5086642;28;20091;-78
2021/10/06 10:21:18;;;;;;;4.45;1.00;;;19.40;77.80;;;;;;5100040;28;20742;-78
2021/10/06 10:23:43;;;;;;;8.07;1.20;;;19.50;75.70;;;;;;5102477;28;20023;-78
2021/10/06 10:26:24;;;;;;;7.68;1.77;;;19.30;75.50;;;;;;5095109;28;20034;-78
2021/10/06 10:28:50;;;;;;;11.30;2.25;;;19.00;74.20;;;;;;5107075;28;20023;-74
2021/10/06 10:31:18;;;;;;;6.22;1.33;;;18.60;74.40;;;;;;5106840;28;20334;-79
2021/10/06 10:33:48;;;;;;;8.13;2.17;;;18.30;74.40;;;;;;5109455;28;20479;-76
2021/10/06 10:36:35;;;;;;;5.57;1.33;;;17.90;74.80;;;;;;5115141;28;20028;-77
2021/10/06 10:39:02;;;;;;;11.18;2.03;;;17.50;76.00;;;;;;5105295;28;20108;-77
2021/10/06 10:41:48;;;;;;;6.43;1.60;;;17.20;76.00;;;;;;5100219;28;20020;-78
2021/10/06 10:44:23;;;;;;;5.35;1.23;;;16.90;76.90;;;;;;5101679;28;20529;-79
2021/10/06 10:47:05;;;;;;;5.32;1.13;;;16.70;77.10;;;;;;5101187;28;20051;-75
2021/10/06 10:49:48;;;;;;;2.92;1.17;;;16.60;77.30;;;;;;5105114;28;20105;-76
2021/10/06 10:52:15;;;;;;;6.43;1.60;;;16.40;77.50;;;;;;5097757;28;20024;-75
2021/10/06 10:54:44;;;;;;;4.68;0.85;;;16.30;77.50;;;;;;5099453;28;20025;-76
2021/10/06 10:57:27;;;;;;;3.53;1.00;;;16.30;77.70;;;;;;5101170;28;20024;-74
2021/10/06 10:59:56;;;;;;;4.85;0.90;;;16.30;78.10;;;;;;5099488;28;20397;-78
2021/10/06 11:02:30;;;;;;;5.15;1.30;;;16.30;78.30;;;;;;5094478;28;20108;-75
2021/10/06 11:04:58;;;;;;;5.68;1.15;;;16.30;78.40;;;;;;5107326;28;20027;-76
2021/10/06 11:07:25;;;;;;;5.60;1.30;;;16.40;78.50;;;;;;5106414;28;20016;-75
2021/10/06 11:09:52;;;;;;;3.30;1.20;;;16.40;78.70;;;;;;5110129;28;20381;-75
2021/10/06 11:12:18;;;;;;;5.28;0.90;;;16.40;78.70;;;;;;5100723;28;20095;-75
2021/10/06 11:14:46;;;;;;;5.28;1.33;;;16.40;78.70;;;;;;5098899;28;20135;-75
2021/10/06 11:17:16;;;;;;;4.00;0.90;;;16.40;79.00;;;;;;5094496;28;20428;-76
2021/10/06 11:19:49;;;;;;;6.40;1.10;;;16.40;79.10;;;;;;5100848;28;20051;-75
2021/10/06 11:22:24;;;;;;;6.03;1.48;;;16.40;79.10;;;;;;5113156;28;20024;-75
2021/10/06 11:25:07;;;;;;;10.57;2.03;;;16.30;78.80;;;;;;5111804;28;20036;-75
2021/10/06 11:27:50;;;;;;;5.82;1.10;;;16.30;78.70;;;;;;5113560;28;20047;-76
2021/10/06 11:30:18;;;;;;;4.38;1.10;;;16.20;78.80;;;;;;5109109;28;20126;-76
2021/10/06 11:32:53;;;;;;;6.85;1.25;;;16.20;79.00;;;;;;5114196;28;20031;-76
2021/10/06 11:35:19;;;;;;;9.20;1.60;;;16.10;79.30;;;;;;5104156;28;20028;-76
2021/10/06 11:37:45;;;;;;;9.80;2.10;;;16.10;79.50;;;;;;5092828;28;20039;-76
2021/10/06 11:40:14;;;;;;;4.55;1.10;;;16.20;79.60;;;;;;5094643;28;20031;-75
2021/10/06 11:42:41;;;;;;;4.10;0.93;;;16.20;80.10;;;;;;5101954;28;20040;-75
2021/10/06 11:45:19;;;;;;;9.00;1.38;;;16.30;79.70;;;;;;5106925;28;20028;-75
2021/10/06 11:47:44;;;;;;;8.75;3.03;;;16.30;79.80;;;;;;5093776;28;20019;-75
2021/10/06 11:50:10;;;;;;;5.80;0.82;;;16.30;80.20;;;;;;5095219;28;20707;-75
2021/10/06 11:52:36;;;;;;;4.75;1.17;;;16.30;79.90;;;;;;5101908;28;20481;-77
2021/10/06 11:55:02;;;;;;;5.43;1.30;;;16.30;79.90;;;;;;5107392;28;20047;-76
2021/10/06 11:57:28;;;;;;;5.32;1.63;;;16.30;80.10;;;;;;5098860;28;20024;-77
2021/10/06 11:59:54;;;;;;;4.68;0.95;;;16.30;80.20;;;;;;5094160;28;20638;-76
2021/10/06 12:02:21;;;;;;;5.78;1.17;;;16.30;80.10;;;;;;5105221;28;20562;-76
2021/10/06 12:04:54;;;;;;;5.38;1.10;;;16.20;80.50;;;;;;5096599;28;20033;-74
2021/10/06 12:07:23;;;;;;;4.45;0.80;;;16.20;80.50;;;;;;5104751;28;20016;-76
2021/10/06 12:09:50;;;;;;;4.20;0.95;;;16.10;80.20;;;;;;5105943;28;20020;-75
2021/10/06 12:12:21;;;;;;;2.00;0.73;;;16.00;80.30;;;;;;5098327;28;20505;-76
2021/10/06 12:15:14;;;;;;;6.25;0.98;;;16.00;80.50;;;;;;5106401;28;20084;-76
2021/10/06 12:17:50;;;;;;;4.75;0.80;;;15.80;81.20;;;;;;5100023;28;20036;-76
2021/10/06 12:20:20;;;;;;;9.52;1.38;;;15.70;81.70;;;;;;5099856;28;20046;-77
2021/10/06 12:22:54;;;;;;;6.38;1.00;;;15.60;82.20;;;;;;5105496;28;20035;-77
2021/10/06 12:25:24;;;;;;;3.28;0.60;;;15.50;82.80;;;;;;5101431;28;20461;-77
2021/10/06 12:27:52;;;;;;;3.03;1.10;;;15.50;83.20;;;;;;5099251;28;20024;-74
2021/10/06 12:30:25;;;;;;;4.43;1.05;;;15.40;83.90;;;;;;5102051;28;20020;-78
2021/10/06 12:33:14;;;;;;;3.15;0.90;;;15.40;84.40;;;;;;5097746;28;20048;-75
2021/10/06 12:35:50;;;;;;;7.95;1.08;;;15.30;85.00;;;;;;5104919;28;20454;-75
2021/10/06 12:38:16;;;;;;;6.68;0.95;;;15.20;85.20;;;;;;5109727;28;20030;-76
2021/10/06 12:40:49;;;;;;;4.15;0.90;;;15.10;86.00;;;;;;5099058;28;20020;-77
2021/10/06 12:43:42;;;;;;;3.22;0.90;;;15.00;86.90;;;;;;5102999;28;20100;-78
2021/10/06 12:46:15;;;;;;;7.45;1.42;;;14.90;87.80;;;;;;5100311;28;20416;-76
2021/10/06 12:48:46;;;;;;;4.75;1.02;;;14.90;88.20;;;;;;5105263;28;20015;-76
2021/10/06 12:51:24;;;;;;;3.50;1.02;;;14.90;89.00;;;;;;5107646;28;20051;-76